createdAt,value
2017-03-30T00:00:06.204Z,46.91
2017-03-30T00:00:38.597Z,46.91
2017-03-30T00:01:10.851Z,46.91
2017-03-30T00:01:43.163Z,46.91
2017-03-30T00:02:15.486Z,47.2
2017-03-30T00:02:47.804Z,47.2
2017-03-30T00:03:20.127Z,47.1
2017-03-30T00:03:52.429Z,47
2017-03-30T00:04:24.744Z,47.27
2017-03-30T00:04:57.044Z,46.98
2017-03-30T00:05:29.381Z,47
2017-03-30T00:06:01.694Z,47.2
2017-03-30T00:06:34.094Z,46.89
2017-03-30T00:07:06.513Z,46.98
2017-03-30T00:07:38.825Z,46.91
2017-03-30T00:08:11.144Z,46.98
2017-03-30T00:08:43.456Z,47.27
2017-03-30T00:09:15.781Z,46.89
2017-03-30T00:09:48.090Z,47.08
2017-03-30T00:10:20.403Z,46.79
2017-03-30T00:10:52.719Z,46.98
2017-03-30T00:11:25.041Z,47.1
2017-03-30T00:11:57.378Z,47
2017-03-30T00:12:29.703Z,47
2017-03-30T00:13:02.012Z,47
2017-03-30T00:13:34.334Z,47
2017-03-30T00:14:06.649Z,46.98
2017-03-30T00:14:38.975Z,47.3
2017-03-30T00:15:11.292Z,47.08
2017-03-30T00:15:43.612Z,47.17
2017-03-30T00:16:15.915Z,47.2
2017-03-30T00:16:48.227Z,47.17
2017-03-30T00:17:20.546Z,47.08
2017-03-30T00:17:52.850Z,47.2
2017-03-30T00:18:25.181Z,47.2
2017-03-30T00:18:57.502Z,47.2
2017-03-30T00:19:29.808Z,47.1
2017-03-30T00:20:02.132Z,47.17
2017-03-30T00:20:34.443Z,47.2
2017-03-30T00:21:06.739Z,47.1
2017-03-30T00:21:39.048Z,47.2
2017-03-30T00:22:11.367Z,47
2017-03-30T00:22:43.686Z,47.17
2017-03-30T00:23:16.032Z,47.17
2017-03-30T00:23:48.337Z,47.08
2017-03-30T00:24:20.645Z,47.2
2017-03-30T00:24:52.953Z,47.17
2017-03-30T00:25:25.254Z,47.08
2017-03-30T00:25:57.570Z,47.08
2017-03-30T00:26:29.883Z,47.1
2017-03-30T00:27:02.213Z,47.08
2017-03-30T00:27:34.531Z,47.17
2017-03-30T00:28:06.853Z,47.3
2017-03-30T00:28:39.176Z,47
2017-03-30T00:29:11.494Z,47.17
2017-03-30T00:29:43.795Z,46.98
2017-03-30T00:30:16.116Z,47.08
2017-03-30T00:30:48.435Z,47.2
2017-03-30T00:31:20.751Z,47.27
2017-03-30T00:31:53.063Z,47.17
2017-03-30T00:32:25.376Z,47.2
2017-03-30T00:32:57.686Z,46.98
2017-03-30T00:33:30.007Z,47.27
2017-03-30T00:34:02.318Z,47.17
2017-03-30T00:34:34.632Z,47.17
2017-03-30T00:35:06.966Z,47.27
2017-03-30T00:35:39.279Z,46.98
2017-03-30T00:36:11.597Z,47.27
2017-03-30T00:36:43.918Z,47.08
2017-03-30T00:37:16.224Z,47.27
2017-03-30T00:37:48.560Z,47.3
2017-03-30T00:38:20.874Z,47.1
2017-03-30T00:38:53.171Z,47.08
2017-03-30T00:39:25.477Z,47.27
2017-03-30T00:39:57.795Z,47.17
2017-03-30T00:40:30.110Z,47.2
2017-03-30T00:41:02.440Z,47.1
2017-03-30T00:41:34.730Z,47.1
2017-03-30T00:42:07.042Z,47.17
2017-03-30T00:42:39.347Z,47.1
2017-03-30T00:43:11.647Z,47.27
2017-03-30T00:43:43.975Z,47.17
2017-03-30T00:44:16.284Z,47.08
2017-03-30T00:44:48.600Z,47.17
2017-03-30T00:45:20.900Z,46.98
2017-03-30T00:45:53.204Z,47
2017-03-30T00:46:25.517Z,47.1
2017-03-30T00:46:57.825Z,47.17
2017-03-30T00:47:30.132Z,47.08
2017-03-30T00:48:02.445Z,47.17
2017-03-30T00:48:34.771Z,47.17
2017-03-30T00:49:07.090Z,47.1
2017-03-30T00:49:39.383Z,47.36
2017-03-30T00:50:11.691Z,47.1
2017-03-30T00:50:43.993Z,47.2
2017-03-30T00:51:16.307Z,47.36
2017-03-30T00:51:48.632Z,47.1
2017-03-30T00:52:20.989Z,47.08
2017-03-30T00:52:53.291Z,47.3
2017-03-30T00:53:25.608Z,47.1
2017-03-30T00:53:57.912Z,47.1
2017-03-30T00:54:30.217Z,47.27
2017-03-30T00:55:02.536Z,47.17
2017-03-30T00:55:34.839Z,47.36
2017-03-30T00:56:07.145Z,47.27
2017-03-30T00:56:39.462Z,47.3
2017-03-30T00:57:11.789Z,47.08
2017-03-30T00:57:44.118Z,47.3
2017-03-30T00:58:16.457Z,47.36
2017-03-30T00:58:48.770Z,47.3
2017-03-30T00:59:21.064Z,47.2
2017-03-30T00:59:53.375Z,47.3
2017-03-30T01:00:25.678Z,47.17
2017-03-30T01:00:58.019Z,47.2
2017-03-30T01:01:30.348Z,47.36
2017-03-30T01:02:02.708Z,47.17
2017-03-30T01:02:35.020Z,47.27
2017-03-30T01:03:07.342Z,47.17
2017-03-30T01:03:39.655Z,47.3
2017-03-30T01:04:11.958Z,47.17
2017-03-30T01:04:44.259Z,47.1
2017-03-30T01:05:16.591Z,47.17
2017-03-30T01:05:48.899Z,47.08
2017-03-30T01:06:21.207Z,47.2
2017-03-30T01:06:53.520Z,47.36
2017-03-30T01:07:25.834Z,47.17
2017-03-30T01:07:58.137Z,47.36
2017-03-30T01:08:30.445Z,47.39
2017-03-30T01:09:02.801Z,47.27
2017-03-30T01:09:35.146Z,47.39
2017-03-30T01:10:07.459Z,47.27
2017-03-30T01:10:39.780Z,47.2
2017-03-30T01:11:12.086Z,47.27
2017-03-30T01:11:44.385Z,47.3
2017-03-30T01:12:16.689Z,47.2
2017-03-30T01:12:48.956Z,47.36
2017-03-30T01:13:21.199Z,47.27
2017-03-30T01:13:54.420Z,47.36
2017-03-30T01:14:26.660Z,47.27
2017-03-30T01:15:00.473Z,47.36
2017-03-30T01:15:32.738Z,47.39
2017-03-30T01:16:05.011Z,47.17
2017-03-30T01:16:37.254Z,47.17
2017-03-30T01:17:09.569Z,47.17
2017-03-30T01:17:41.817Z,47.36
2017-03-30T01:18:14.057Z,47.27
2017-03-30T01:18:46.359Z,47.27
2017-03-30T01:19:18.621Z,47.46
2017-03-30T01:19:50.879Z,47.36
2017-03-30T01:20:23.995Z,47.36
2017-03-30T01:20:56.273Z,47.36
2017-03-30T01:21:28.523Z,47.36
2017-03-30T01:22:00.799Z,47.3
2017-03-30T01:22:33.106Z,47.36
2017-03-30T01:23:05.429Z,47.46
2017-03-30T01:23:37.766Z,47.36
2017-03-30T01:24:10.073Z,47.58
2017-03-30T01:24:42.376Z,47.39
2017-03-30T01:25:14.678Z,47.36
2017-03-30T01:25:47.008Z,47.36
2017-03-30T01:26:19.324Z,47.36
2017-03-30T01:26:51.640Z,47.46
2017-03-30T01:27:23.952Z,47.46
2017-03-30T01:27:56.263Z,47.27
2017-03-30T01:28:28.582Z,47.27
2017-03-30T01:29:00.905Z,47.36
2017-03-30T01:29:33.222Z,47.36
2017-03-30T01:30:05.528Z,47.36
2017-03-30T01:30:37.842Z,47.36
2017-03-30T01:31:10.158Z,47.27
2017-03-30T01:31:42.466Z,47.56
2017-03-30T01:32:14.767Z,47.36
2017-03-30T01:32:47.882Z,47.36
2017-03-30T01:33:20.938Z,47.46
2017-03-30T01:33:53.178Z,47.27
2017-03-30T01:34:25.442Z,47.27
2017-03-30T01:34:57.763Z,47.46
2017-03-30T01:35:30.009Z,47.46
2017-03-30T01:36:02.264Z,47.36
2017-03-30T01:36:35.496Z,47.46
2017-03-30T01:37:07.744Z,47.46
2017-03-30T01:37:40.498Z,47.27
2017-03-30T01:38:12.750Z,47.36
2017-03-30T01:38:44.994Z,47.39
2017-03-30T01:39:17.234Z,47.36
2017-03-30T01:39:49.464Z,47.36
2017-03-30T01:40:21.722Z,47.36
2017-03-30T01:40:53.975Z,47.46
2017-03-30T01:41:26.239Z,47.46
2017-03-30T01:41:58.517Z,47.36
2017-03-30T01:42:30.835Z,47.56
2017-03-30T01:43:03.139Z,47.46
2017-03-30T01:43:35.466Z,47.36
2017-03-30T01:44:07.789Z,47.66
2017-03-30T01:44:40.107Z,47.36
2017-03-30T01:45:12.437Z,47.36
2017-03-30T01:45:44.741Z,47.36
2017-03-30T01:46:17.052Z,47.46
2017-03-30T01:46:49.377Z,47.46
2017-03-30T01:47:21.693Z,47.46
2017-03-30T01:47:54.004Z,47.46
2017-03-30T01:48:26.330Z,47.36
2017-03-30T01:48:58.642Z,47.46
2017-03-30T01:49:30.973Z,47.27
2017-03-30T01:50:03.292Z,47.27
2017-03-30T01:50:35.614Z,47.46
2017-03-30T01:51:07.933Z,47.36
2017-03-30T01:51:40.262Z,47.46
2017-03-30T01:52:12.571Z,47.46
2017-03-30T01:52:44.879Z,47.36
2017-03-30T01:53:17.181Z,47.27
2017-03-30T01:53:49.527Z,47.46
2017-03-30T01:54:21.857Z,47.27
2017-03-30T01:54:54.177Z,47.46
2017-03-30T01:55:26.487Z,47.36
2017-03-30T01:55:58.793Z,47.36
2017-03-30T01:56:31.105Z,47.27
2017-03-30T01:57:03.423Z,47.36
2017-03-30T01:57:35.738Z,47.27
2017-03-30T01:58:08.051Z,47.36
2017-03-30T01:58:40.360Z,47.56
2017-03-30T01:59:12.654Z,47.36
2017-03-30T01:59:44.963Z,47.46
2017-03-30T02:00:17.271Z,47.46
2017-03-30T02:00:49.574Z,47.36
2017-03-30T02:01:21.899Z,47.36
2017-03-30T02:01:54.202Z,47.46
2017-03-30T02:02:27.426Z,47.46
2017-03-30T02:02:59.670Z,47.27
2017-03-30T02:03:31.919Z,47.36
2017-03-30T02:04:04.166Z,47.46
2017-03-30T02:04:36.418Z,47.39
2017-03-30T02:05:08.663Z,47.46
2017-03-30T02:05:41.054Z,47.46
2017-03-30T02:06:13.325Z,47.36
2017-03-30T02:06:45.567Z,47.46
2017-03-30T02:07:17.814Z,47.56
2017-03-30T02:07:50.037Z,47.27
2017-03-30T02:08:22.281Z,47.36
2017-03-30T02:08:54.520Z,47.36
2017-03-30T02:09:26.862Z,47.46
2017-03-30T02:09:59.113Z,47.46
2017-03-30T02:10:31.342Z,47.56
2017-03-30T02:11:03.588Z,47.56
2017-03-30T02:11:35.837Z,47.56
2017-03-30T02:12:08.964Z,47.46
2017-03-30T02:12:41.278Z,47.46
2017-03-30T02:13:13.580Z,47.46
2017-03-30T02:13:45.890Z,47.56
2017-03-30T02:14:18.196Z,47.46
2017-03-30T02:14:50.494Z,47.56
2017-03-30T02:15:22.792Z,47.46
2017-03-30T02:15:55.100Z,47.46
2017-03-30T02:16:27.422Z,47.46
2017-03-30T02:16:59.758Z,47.58
2017-03-30T02:17:32.069Z,47.56
2017-03-30T02:18:04.379Z,47.36
2017-03-30T02:18:36.681Z,47.56
2017-03-30T02:19:08.991Z,47.46
2017-03-30T02:19:41.299Z,47.56
2017-03-30T02:20:13.604Z,47.56
2017-03-30T02:20:45.945Z,47.56
2017-03-30T02:21:18.259Z,47.56
2017-03-30T02:21:50.550Z,47.56
2017-03-30T02:22:22.793Z,47.56
2017-03-30T02:22:55.041Z,47.56
2017-03-30T02:23:27.302Z,47.56
2017-03-30T02:23:59.562Z,47.56
2017-03-30T02:24:31.790Z,47.56
2017-03-30T02:25:04.047Z,47.56
2017-03-30T02:25:36.298Z,47.56
2017-03-30T02:26:08.557Z,47.49
2017-03-30T02:26:40.818Z,47.66
2017-03-30T02:27:13.064Z,47.56
2017-03-30T02:27:45.317Z,47.46
2017-03-30T02:28:17.561Z,47.56
2017-03-30T02:28:49.802Z,47.56
2017-03-30T02:29:22.958Z,47.66
2017-03-30T02:29:55.856Z,47.66
2017-03-30T02:30:28.113Z,47.56
2017-03-30T02:31:00.354Z,47.56
2017-03-30T02:31:32.610Z,47.56
2017-03-30T02:32:05.828Z,47.56
2017-03-30T02:32:38.081Z,47.56
2017-03-30T02:33:10.324Z,47.66
2017-03-30T02:33:42.576Z,47.56
2017-03-30T02:34:15.534Z,47.56
2017-03-30T02:34:47.801Z,47.56
2017-03-30T02:35:20.072Z,47.56
2017-03-30T02:35:52.328Z,47.56
2017-03-30T02:36:24.613Z,47.56
2017-03-30T02:36:56.860Z,47.56
2017-03-30T02:37:29.142Z,47.56
2017-03-30T02:38:01.405Z,47.56
2017-03-30T02:38:33.649Z,47.46
2017-03-30T02:39:05.896Z,47.56
2017-03-30T02:39:38.903Z,47.66
2017-03-30T02:40:11.157Z,47.66
2017-03-30T02:40:43.399Z,47.56
2017-03-30T02:41:15.641Z,47.56
2017-03-30T02:41:47.898Z,47.56
2017-03-30T02:42:20.215Z,47.56
2017-03-30T02:42:52.536Z,47.66
2017-03-30T02:43:24.838Z,47.66
2017-03-30T02:43:57.154Z,47.56
2017-03-30T02:44:29.481Z,47.66
2017-03-30T02:45:01.786Z,47.66
2017-03-30T02:45:34.097Z,47.56
2017-03-30T02:46:06.421Z,47.66
2017-03-30T02:46:38.747Z,47.56
2017-03-30T02:47:11.075Z,47.56
2017-03-30T02:47:43.399Z,47.56
2017-03-30T02:48:15.714Z,47.56
2017-03-30T02:48:48.021Z,47.66
2017-03-30T02:49:20.328Z,47.66
2017-03-30T02:49:52.637Z,47.56
2017-03-30T02:50:24.945Z,47.66
2017-03-30T02:50:57.261Z,47.66
2017-03-30T02:51:29.580Z,47.66
2017-03-30T02:52:01.883Z,47.56
2017-03-30T02:52:34.199Z,47.56
2017-03-30T02:53:06.517Z,47.66
2017-03-30T02:53:38.819Z,47.66
2017-03-30T02:54:11.138Z,47.66
2017-03-30T02:54:43.474Z,47.66
2017-03-30T02:55:15.785Z,47.66
2017-03-30T02:55:48.120Z,47.66
2017-03-30T02:56:20.441Z,47.66
2017-03-30T02:56:52.745Z,47.56
2017-03-30T02:57:25.075Z,47.66
2017-03-30T02:57:57.408Z,47.66
2017-03-30T02:58:29.736Z,47.56
2017-03-30T02:59:02.046Z,47.66
2017-03-30T02:59:34.379Z,47.56
2017-03-30T03:00:06.681Z,47.56
2017-03-30T03:00:38.998Z,47.66
2017-03-30T03:01:11.307Z,47.46
2017-03-30T03:01:43.634Z,47.66
2017-03-30T03:02:15.933Z,47.66
2017-03-30T03:02:48.251Z,47.66
2017-03-30T03:03:20.574Z,47.66
2017-03-30T03:03:52.883Z,47.66
2017-03-30T03:04:25.201Z,47.66
2017-03-30T03:04:57.514Z,47.66
2017-03-30T03:05:29.826Z,47.66
2017-03-30T03:06:02.131Z,47.66
2017-03-30T03:06:34.449Z,47.66
2017-03-30T03:07:06.737Z,47.66
2017-03-30T03:07:39.049Z,47.66
2017-03-30T03:08:11.361Z,47.66
2017-03-30T03:08:43.663Z,47.56
2017-03-30T03:09:15.989Z,47.75
2017-03-30T03:09:48.303Z,47.66
2017-03-30T03:10:20.638Z,47.66
2017-03-30T03:10:52.959Z,47.75
2017-03-30T03:11:25.269Z,47.75
2017-03-30T03:11:58.065Z,47.66
2017-03-30T03:12:30.327Z,47.66
2017-03-30T03:13:02.575Z,47.66
2017-03-30T03:13:34.844Z,47.75
2017-03-30T03:14:07.094Z,47.66
2017-03-30T03:14:39.328Z,47.66
2017-03-30T03:15:11.568Z,47.75
2017-03-30T03:15:43.832Z,47.75
2017-03-30T03:16:16.070Z,47.75
2017-03-30T03:16:48.314Z,47.66
2017-03-30T03:17:20.568Z,47.66
2017-03-30T03:17:52.804Z,47.68
2017-03-30T03:18:25.044Z,47.75
2017-03-30T03:18:57.296Z,47.66
2017-03-30T03:19:29.531Z,47.75
2017-03-30T03:20:02.527Z,47.66
2017-03-30T03:20:34.775Z,47.66
2017-03-30T03:21:07.016Z,47.66
2017-03-30T03:21:39.267Z,47.66
2017-03-30T03:22:11.533Z,47.56
2017-03-30T03:22:43.847Z,47.66
2017-03-30T03:23:16.173Z,47.75
2017-03-30T03:23:48.473Z,47.85
2017-03-30T03:24:20.786Z,47.66
2017-03-30T03:24:53.096Z,47.85
2017-03-30T03:25:25.403Z,47.56
2017-03-30T03:25:57.704Z,47.75
2017-03-30T03:26:30.020Z,47.66
2017-03-30T03:27:02.320Z,47.75
2017-03-30T03:27:34.636Z,47.66
2017-03-30T03:28:06.965Z,47.66
2017-03-30T03:28:39.265Z,47.46
2017-03-30T03:29:11.589Z,47.75
2017-03-30T03:29:43.910Z,47.66
2017-03-30T03:30:16.239Z,47.66
2017-03-30T03:30:48.570Z,47.75
2017-03-30T03:31:20.885Z,47.66
2017-03-30T03:31:53.183Z,47.66
2017-03-30T03:32:25.413Z,47.75
2017-03-30T03:32:57.675Z,47.66
2017-03-30T03:33:29.935Z,47.85
2017-03-30T03:34:02.315Z,47.66
2017-03-30T03:34:34.553Z,47.66
2017-03-30T03:35:06.804Z,47.75
2017-03-30T03:35:39.129Z,47.77
2017-03-30T03:36:11.421Z,47.66
2017-03-30T03:36:43.680Z,47.66
2017-03-30T03:37:16.490Z,47.75
2017-03-30T03:37:48.750Z,47.75
2017-03-30T03:38:21.004Z,47.66
2017-03-30T03:38:53.925Z,47.66
2017-03-30T03:39:26.168Z,47.66
2017-03-30T03:39:58.421Z,47.85
2017-03-30T03:40:30.661Z,47.77
2017-03-30T03:41:02.891Z,47.85
2017-03-30T03:41:35.180Z,47.94
2017-03-30T03:42:07.430Z,47.56
2017-03-30T03:42:39.724Z,47.66
2017-03-30T03:43:12.054Z,47.56
2017-03-30T03:43:44.369Z,47.56
2017-03-30T03:44:16.681Z,47.66
2017-03-30T03:44:48.991Z,47.66
2017-03-30T03:45:21.310Z,47.85
2017-03-30T03:45:53.613Z,47.75
2017-03-30T03:46:25.914Z,47.75
2017-03-30T03:46:58.227Z,47.85
2017-03-30T03:47:30.530Z,47.94
2017-03-30T03:48:02.849Z,47.97
2017-03-30T03:48:35.160Z,47.75
2017-03-30T03:49:07.468Z,47.66
2017-03-30T03:49:39.778Z,47.85
2017-03-30T03:50:12.077Z,47.85
2017-03-30T03:50:44.379Z,47.56
2017-03-30T03:51:16.689Z,47.75
2017-03-30T03:51:48.993Z,47.85
2017-03-30T03:52:21.307Z,47.85
2017-03-30T03:52:53.625Z,47.66
2017-03-30T03:53:25.942Z,47.75
2017-03-30T03:53:58.252Z,47.85
2017-03-30T03:54:30.561Z,47.75
2017-03-30T03:55:02.882Z,47.75
2017-03-30T03:55:35.207Z,47.85
2017-03-30T03:56:07.521Z,47.87
2017-03-30T03:56:39.841Z,47.56
2017-03-30T03:57:12.150Z,47.85
2017-03-30T03:57:44.478Z,47.85
2017-03-30T03:58:16.782Z,47.75
2017-03-30T03:58:49.105Z,47.75
2017-03-30T03:59:21.424Z,47.85
2017-03-30T03:59:53.758Z,47.75
2017-03-30T04:00:26.063Z,47.85
2017-03-30T04:00:58.384Z,47.85
2017-03-30T04:01:30.687Z,47.85
2017-03-30T04:02:02.988Z,47.75
2017-03-30T04:02:35.341Z,47.75
2017-03-30T04:03:08.499Z,47.75
2017-03-30T04:03:40.749Z,47.85
2017-03-30T04:04:13.000Z,47.94
2017-03-30T04:04:46.062Z,47.85
2017-03-30T04:05:18.319Z,47.94
2017-03-30T04:05:50.611Z,47.85
2017-03-30T04:06:22.863Z,47.85
2017-03-30T04:06:55.587Z,47.66
2017-03-30T04:07:27.860Z,47.75
2017-03-30T04:08:00.207Z,47.85
2017-03-30T04:08:32.453Z,47.85
2017-03-30T04:09:04.698Z,47.85
2017-03-30T04:09:37.595Z,47.85
2017-03-30T04:10:09.840Z,47.75
2017-03-30T04:10:42.107Z,47.66
2017-03-30T04:11:14.342Z,47.75
2017-03-30T04:11:46.568Z,47.75
2017-03-30T04:12:18.826Z,47.75
2017-03-30T04:12:51.129Z,47.94
2017-03-30T04:13:23.446Z,47.85
2017-03-30T04:13:55.783Z,47.85
2017-03-30T04:14:28.093Z,47.85
2017-03-30T04:15:00.402Z,47.94
2017-03-30T04:15:32.722Z,47.94
2017-03-30T04:16:05.041Z,47.85
2017-03-30T04:16:37.358Z,47.75
2017-03-30T04:17:09.685Z,47.85
2017-03-30T04:17:42.022Z,47.85
2017-03-30T04:18:14.323Z,47.75
2017-03-30T04:18:46.651Z,47.85
2017-03-30T04:19:18.950Z,47.94
2017-03-30T04:19:51.270Z,47.85
2017-03-30T04:20:23.591Z,47.85
2017-03-30T04:20:55.913Z,47.85
2017-03-30T04:21:28.242Z,47.75
2017-03-30T04:22:00.547Z,47.85
2017-03-30T04:22:33.395Z,47.94
2017-03-30T04:23:06.449Z,48.04
2017-03-30T04:23:38.743Z,47.75
2017-03-30T04:24:11.043Z,47.94
2017-03-30T04:24:43.295Z,47.85
2017-03-30T04:25:15.542Z,47.66
2017-03-30T04:25:47.776Z,47.85
2017-03-30T04:26:20.037Z,47.85
2017-03-30T04:26:52.273Z,48.04
2017-03-30T04:27:24.541Z,47.94
2017-03-30T04:27:56.846Z,47.75
2017-03-30T04:28:29.120Z,47.94
2017-03-30T04:29:01.366Z,47.85
2017-03-30T04:29:33.622Z,47.85
2017-03-30T04:30:05.877Z,47.94
2017-03-30T04:30:38.128Z,48.13
2017-03-30T04:31:10.366Z,48.04
2017-03-30T04:31:43.520Z,47.85
2017-03-30T04:32:15.774Z,47.85
2017-03-30T04:32:48.030Z,48.04
2017-03-30T04:33:20.298Z,47.94
2017-03-30T04:33:52.545Z,48.04
2017-03-30T04:34:24.783Z,48.04
2017-03-30T04:34:57.036Z,47.94
2017-03-30T04:35:29.927Z,47.94
2017-03-30T04:36:02.185Z,48.04
2017-03-30T04:36:34.427Z,48.04
2017-03-30T04:37:06.682Z,48.04
2017-03-30T04:37:38.948Z,48.04
2017-03-30T04:38:11.914Z,48.13
2017-03-30T04:38:44.172Z,48.04
2017-03-30T04:39:16.421Z,48.04
2017-03-30T04:39:48.681Z,48.04
2017-03-30T04:40:21.903Z,48.04
2017-03-30T04:40:55.041Z,48.04
2017-03-30T04:41:27.341Z,48.04
2017-03-30T04:41:59.598Z,47.94
2017-03-30T04:42:31.903Z,48.04
2017-03-30T04:43:04.214Z,48.04
2017-03-30T04:43:36.528Z,48.04
2017-03-30T04:44:08.868Z,48.04
2017-03-30T04:44:41.178Z,48.04
2017-03-30T04:45:13.493Z,47.85
2017-03-30T04:45:45.807Z,48.04
2017-03-30T04:46:18.126Z,47.94
2017-03-30T04:46:50.450Z,47.94
2017-03-30T04:47:22.750Z,48.04
2017-03-30T04:47:55.066Z,48.04
2017-03-30T04:48:27.381Z,47.94
2017-03-30T04:48:59.702Z,48.04
2017-03-30T04:49:32.013Z,47.94
2017-03-30T04:50:04.324Z,47.94
2017-03-30T04:50:36.628Z,48.04
2017-03-30T04:51:08.962Z,47.94
2017-03-30T04:51:41.267Z,47.94
2017-03-30T04:52:13.587Z,47.94
2017-03-30T04:52:45.888Z,47.94
2017-03-30T04:53:18.197Z,47.94
2017-03-30T04:53:50.517Z,48.04
2017-03-30T04:54:22.824Z,47.94
2017-03-30T04:54:55.145Z,47.94
2017-03-30T04:55:27.469Z,47.94
2017-03-30T04:55:59.793Z,47.94
2017-03-30T04:56:32.095Z,47.94
2017-03-30T04:57:04.395Z,47.94
2017-03-30T04:57:36.726Z,47.94
2017-03-30T04:58:09.051Z,48.04
2017-03-30T04:58:41.343Z,47.94
2017-03-30T04:59:13.660Z,48.04
2017-03-30T04:59:45.985Z,47.94
2017-03-30T05:00:18.307Z,47.94
2017-03-30T05:00:50.612Z,47.94
2017-03-30T05:01:22.944Z,47.94
2017-03-30T05:01:55.235Z,48.04
2017-03-30T05:02:29.015Z,47.94
2017-03-30T05:03:01.255Z,47.94
2017-03-30T05:03:34.073Z,47.94
2017-03-30T05:04:06.451Z,48.04
2017-03-30T05:04:38.701Z,47.94
2017-03-30T05:05:10.936Z,47.85
2017-03-30T05:05:44.069Z,48.04
2017-03-30T05:06:16.312Z,48.04
2017-03-30T05:06:48.571Z,48.04
2017-03-30T05:07:20.836Z,47.94
2017-03-30T05:07:54.031Z,48.13
2017-03-30T05:08:26.289Z,48.04
2017-03-30T05:08:58.556Z,47.94
2017-03-30T05:09:30.808Z,48.13
2017-03-30T05:10:03.054Z,48.04
2017-03-30T05:10:35.360Z,47.94
2017-03-30T05:11:07.629Z,48.04
2017-03-30T05:11:39.869Z,47.94
2017-03-30T05:12:12.114Z,48.04
2017-03-30T05:12:44.427Z,47.94
2017-03-30T05:13:16.739Z,48.04
2017-03-30T05:13:49.055Z,48.04
2017-03-30T05:14:21.381Z,48.04
2017-03-30T05:14:53.697Z,48.04
2017-03-30T05:15:26.016Z,47.94
2017-03-30T05:15:58.342Z,48.04
2017-03-30T05:16:30.636Z,48.04
2017-03-30T05:17:02.944Z,48.04
2017-03-30T05:17:35.277Z,48.13
2017-03-30T05:18:07.584Z,47.94
2017-03-30T05:18:39.933Z,48.04
2017-03-30T05:19:12.253Z,48.04
2017-03-30T05:19:44.560Z,47.94
2017-03-30T05:20:16.883Z,48.04
2017-03-30T05:20:49.208Z,48.04
2017-03-30T05:21:21.520Z,47.97
2017-03-30T05:21:53.827Z,48.04
2017-03-30T05:22:26.140Z,48.04
2017-03-30T05:22:58.455Z,47.94
2017-03-30T05:23:30.753Z,48.04
2017-03-30T05:24:03.056Z,48.04
2017-03-30T05:24:35.364Z,48.04
2017-03-30T05:25:07.661Z,48.04
2017-03-30T05:25:39.976Z,48.04
2017-03-30T05:26:12.288Z,48.04
2017-03-30T05:26:44.594Z,47.94
2017-03-30T05:27:16.890Z,47.94
2017-03-30T05:27:49.208Z,48.04
2017-03-30T05:28:21.537Z,48.04
2017-03-30T05:28:53.891Z,48.04
2017-03-30T05:29:26.210Z,48.13
2017-03-30T05:29:58.540Z,48.04
2017-03-30T05:30:30.859Z,48.04
2017-03-30T05:31:03.175Z,47.85
2017-03-30T05:31:35.482Z,48.04
2017-03-30T05:32:07.768Z,48.04
2017-03-30T05:32:40.597Z,47.94
2017-03-30T05:33:12.854Z,47.94
2017-03-30T05:33:45.082Z,48.13
2017-03-30T05:34:17.332Z,47.94
2017-03-30T05:34:49.563Z,48.13
2017-03-30T05:35:21.808Z,48.04
2017-03-30T05:35:54.057Z,48.04
2017-03-30T05:36:26.297Z,48.04
2017-03-30T05:36:58.538Z,48.04
2017-03-30T05:37:30.812Z,48.13
2017-03-30T05:38:03.135Z,48.13
2017-03-30T05:38:36.097Z,48.13
2017-03-30T05:39:10.877Z,48.13
2017-03-30T05:39:44.107Z,47.94
2017-03-30T05:40:16.367Z,48.04
2017-03-30T05:40:48.608Z,48.04
2017-03-30T05:41:20.833Z,48.04
2017-03-30T05:41:54.040Z,48.23
2017-03-30T05:42:26.290Z,48.13
2017-03-30T05:42:58.560Z,48.04
2017-03-30T05:43:30.806Z,48.04
2017-03-30T05:44:03.049Z,48.13
2017-03-30T05:44:35.943Z,48.13
2017-03-30T05:45:08.187Z,48.13
2017-03-30T05:45:40.432Z,47.94
2017-03-30T05:46:12.661Z,48.13
2017-03-30T05:46:44.904Z,48.13
2017-03-30T05:47:17.930Z,48.13
2017-03-30T05:47:51.110Z,48.13
2017-03-30T05:48:23.385Z,48.13
2017-03-30T05:48:56.626Z,48.25
2017-03-30T05:49:28.888Z,48.23
2017-03-30T05:50:01.152Z,48.04
2017-03-30T05:50:33.408Z,48.16
2017-03-30T05:51:05.678Z,48.16
2017-03-30T05:51:37.930Z,48.16
2017-03-30T05:52:10.206Z,48.16
2017-03-30T05:52:42.455Z,48.13
2017-03-30T05:53:16.131Z,48.07
2017-03-30T05:53:49.032Z,48.25
2017-03-30T05:54:22.097Z,48.07
2017-03-30T05:54:54.341Z,48.25
2017-03-30T05:55:26.605Z,48.16
2017-03-30T05:55:58.841Z,48.07
2017-03-30T05:56:31.085Z,48.04
2017-03-30T05:57:03.342Z,48.07
2017-03-30T05:57:35.655Z,48.16
2017-03-30T05:58:07.908Z,48.13
2017-03-30T05:58:40.166Z,48.07
2017-03-30T05:59:12.412Z,48.16
2017-03-30T05:59:44.671Z,48.13
2017-03-30T06:00:16.917Z,48.04
2017-03-30T06:00:49.702Z,48.07
2017-03-30T06:01:22.551Z,48.13
2017-03-30T06:01:54.816Z,48.04
2017-03-30T06:02:27.140Z,48.13
2017-03-30T06:02:59.485Z,48.04
2017-03-30T06:03:31.809Z,48.16
2017-03-30T06:04:04.124Z,48.04
2017-03-30T06:04:36.449Z,48.23
2017-03-30T06:05:08.763Z,48.16
2017-03-30T06:05:41.072Z,48.13
2017-03-30T06:06:13.370Z,48.07
2017-03-30T06:06:45.675Z,48.04
2017-03-30T06:07:17.971Z,48.13
2017-03-30T06:07:50.321Z,48.07
2017-03-30T06:08:22.630Z,48.13
2017-03-30T06:08:54.929Z,48.07
2017-03-30T06:09:27.239Z,48.07
2017-03-30T06:09:59.574Z,48.25
2017-03-30T06:10:31.887Z,48.25
2017-03-30T06:11:04.210Z,48.16
2017-03-30T06:11:36.522Z,48.16
2017-03-30T06:12:10.115Z,48.16
2017-03-30T06:12:42.456Z,48.23
2017-03-30T06:13:14.779Z,48.23
2017-03-30T06:13:47.099Z,48.23
2017-03-30T06:14:19.424Z,48.25
2017-03-30T06:14:51.725Z,48.04
2017-03-30T06:15:24.078Z,48.07
2017-03-30T06:15:56.549Z,48.16
2017-03-30T06:16:29.101Z,48.23
2017-03-30T06:17:01.422Z,48.16
2017-03-30T06:17:33.741Z,48.13
2017-03-30T06:18:06.056Z,48.16
2017-03-30T06:18:38.368Z,48.07
2017-03-30T06:19:10.658Z,48.16
2017-03-30T06:19:42.972Z,48.25
2017-03-30T06:20:15.285Z,48.16
2017-03-30T06:20:47.579Z,48.23
2017-03-30T06:21:19.880Z,48.16
2017-03-30T06:21:52.207Z,48.16
2017-03-30T06:22:24.519Z,48.25
2017-03-30T06:22:56.842Z,48.16
2017-03-30T06:23:29.151Z,48.16
2017-03-30T06:24:01.453Z,48.25
2017-03-30T06:24:33.775Z,48.25
2017-03-30T06:25:06.091Z,48.16
2017-03-30T06:25:38.389Z,48.25
2017-03-30T06:26:10.698Z,48.13
2017-03-30T06:26:43.009Z,48.25
2017-03-30T06:27:15.325Z,48.16
2017-03-30T06:27:47.625Z,48.23
2017-03-30T06:28:19.943Z,48.16
2017-03-30T06:28:52.270Z,48.16
2017-03-30T06:29:24.590Z,48.16
2017-03-30T06:29:56.913Z,48.25
2017-03-30T06:30:29.213Z,48.16
2017-03-30T06:31:01.530Z,48.16
2017-03-30T06:31:33.831Z,48.25
2017-03-30T06:32:06.165Z,48.07
2017-03-30T06:32:38.481Z,48.25
2017-03-30T06:33:10.838Z,48.07
2017-03-30T06:33:43.168Z,48.16
2017-03-30T06:34:15.487Z,48.16
2017-03-30T06:34:47.797Z,48.25
2017-03-30T06:35:20.113Z,48.16
2017-03-30T06:35:52.428Z,48.35
2017-03-30T06:36:24.744Z,48.16
2017-03-30T06:36:57.044Z,48.16
2017-03-30T06:37:29.435Z,48.07
2017-03-30T06:38:01.763Z,48.16
2017-03-30T06:38:34.078Z,48.16
2017-03-30T06:39:06.393Z,48.35
2017-03-30T06:39:38.694Z,48.25
2017-03-30T06:40:11.014Z,48.07
2017-03-30T06:40:43.317Z,48.07
2017-03-30T06:41:15.627Z,48.16
2017-03-30T06:41:47.939Z,48.16
2017-03-30T06:42:20.268Z,48.16
2017-03-30T06:42:52.584Z,48.25
2017-03-30T06:43:24.906Z,48.16
2017-03-30T06:43:57.224Z,48.16
2017-03-30T06:44:29.571Z,48.07
2017-03-30T06:45:01.904Z,48.25
2017-03-30T06:45:34.201Z,48.07
2017-03-30T06:46:06.501Z,48.16
2017-03-30T06:46:38.809Z,48.16
2017-03-30T06:47:11.124Z,48.25
2017-03-30T06:47:43.443Z,48.16
2017-03-30T06:48:15.765Z,48.16
2017-03-30T06:48:48.081Z,47.97
2017-03-30T06:49:20.399Z,48.16
2017-03-30T06:49:52.721Z,48.25
2017-03-30T06:50:25.028Z,48.16
2017-03-30T06:50:57.351Z,47.97
2017-03-30T06:51:29.690Z,48.16
2017-03-30T06:52:01.987Z,48.07
2017-03-30T06:52:34.262Z,48.16
2017-03-30T06:53:06.510Z,48.16
2017-03-30T06:53:38.766Z,48.25
2017-03-30T06:54:11.011Z,48.25
2017-03-30T06:54:44.113Z,48.16
2017-03-30T06:55:16.360Z,48.16
2017-03-30T06:55:48.763Z,48.16
2017-03-30T06:56:21.017Z,48.25
2017-03-30T06:56:53.272Z,48.16
2017-03-30T06:57:25.524Z,48.25
2017-03-30T06:57:57.817Z,48.16